sensor_id;sensor_type;location;lat;lon;timestamp;P1;durP1;ratioP1;P2;durP2;ratioP2
51664;SDS011;37751;52.408;12.536;2022-07-23T00:00:17;9.15;;;6.75;;
51664;SDS011;37751;52.408;12.536;2022-07-23T00:02:45;11.02;;;7.05;;
51664;SDS011;37751;52.408;12.536;2022-07-23T00:05:12;8.52;;;6.53;;
51664;SDS011;37751;52.408;12.536;2022-07-23T00:07:38;8.65;;;6.22;;
51664;SDS011;37751;52.408;12.536;2022-07-23T00:10:06;12.70;;;6.65;;
51664;SDS011;37751;52.408;12.536;2022-07-23T00:12:33;12.13;;;6.40;;
51664;SDS011;37751;52.408;12.536;2022-07-23T00:15:01;10.57;;;7.00;;
51664;SDS011;37751;52.408;12.536;2022-07-23T00:17:30;16.17;;;6.47;;
51664;SDS011;37751;52.408;12.536;2022-07-23T00:19:57;14.02;;;7.00;;
51664;SDS011;37751;52.408;12.536;2022-07-23T00:22:24;14.77;;;7.50;;
51664;SDS011;37751;52.408;12.536;2022-07-23T00:24:51;11.30;;;6.85;;
51664;SDS011;37751;52.408;12.536;2022-07-23T00:27:38;16.20;;;7.25;;
51664;SDS011;37751;52.408;12.536;2022-07-23T00:30:05;7.97;;;6.07;;
51664;SDS011;37751;52.408;12.536;2022-07-23T00:32:32;10.57;;;6.45;;
51664;SDS011;37751;52.408;12.536;2022-07-23T00:35:21;7.72;;;5.82;;
51664;SDS011;37751;52.408;12.536;2022-07-23T00:37:52;9.40;;;6.35;;
51664;SDS011;37751;52.408;12.536;2022-07-23T00:40:20;8.77;;;6.68;;
51664;SDS011;37751;52.408;12.536;2022-07-23T00:42:48;9.73;;;6.07;;
51664;SDS011;37751;52.408;12.536;2022-07-23T00:45:15;9.57;;;6.38;;
51664;SDS011;37751;52.408;12.536;2022-07-23T00:47:42;8.88;;;6.13;;
51664;SDS011;37751;52.408;12.536;2022-07-23T00:50:08;11.68;;;6.10;;
51664;SDS011;37751;52.408;12.536;2022-07-23T00:52:37;14.38;;;5.80;;
51664;SDS011;37751;52.408;12.536;2022-07-23T00:55:05;9.20;;;5.93;;
51664;SDS011;37751;52.408;12.536;2022-07-23T00:57:35;12.75;;;6.30;;
51664;SDS011;37751;52.408;12.536;2022-07-23T01:00:06;8.07;;;5.70;;
51664;SDS011;37751;52.408;12.536;2022-07-23T01:02:37;10.30;;;5.45;;
51664;SDS011;37751;52.408;12.536;2022-07-23T01:05:05;7.85;;;5.78;;
51664;SDS011;37751;52.408;12.536;2022-07-23T01:07:33;11.73;;;6.00;;
51664;SDS011;37751;52.408;12.536;2022-07-23T01:10:00;12.90;;;5.95;;
51664;SDS011;37751;52.408;12.536;2022-07-23T01:12:29;11.65;;;5.88;;
51664;SDS011;37751;52.408;12.536;2022-07-23T01:14:56;14.85;;;5.88;;
51664;SDS011;37751;52.408;12.536;2022-07-23T01:17:25;13.20;;;6.55;;
51664;SDS011;37751;52.408;12.536;2022-07-23T01:19:52;11.32;;;6.20;;
51664;SDS011;37751;52.408;12.536;2022-07-23T01:22:19;9.85;;;5.45;;
51664;SDS011;37751;52.408;12.536;2022-07-23T01:24:47;7.43;;;5.47;;
51664;SDS011;37751;52.408;12.536;2022-07-23T01:27:14;8.93;;;5.18;;
51664;SDS011;37751;52.408;12.536;2022-07-23T01:29:40;13.93;;;5.80;;
51664;SDS011;37751;52.408;12.536;2022-07-23T01:32:07;9.55;;;5.30;;
51664;SDS011;37751;52.408;12.536;2022-07-23T01:34:34;9.88;;;5.38;;
51664;SDS011;37751;52.408;12.536;2022-07-23T01:37:01;12.40;;;5.70;;
51664;SDS011;37751;52.408;12.536;2022-07-23T01:39:27;8.55;;;5.35;;
51664;SDS011;37751;52.408;12.536;2022-07-23T01:41:54;9.82;;;5.25;;
51664;SDS011;37751;52.408;12.536;2022-07-23T01:44:21;9.48;;;5.35;;
51664;SDS011;37751;52.408;12.536;2022-07-23T01:46:48;10.13;;;6.05;;
51664;SDS011;37751;52.408;12.536;2022-07-23T01:49:14;6.93;;;4.93;;
51664;SDS011;37751;52.408;12.536;2022-07-23T01:51:41;10.57;;;5.15;;
51664;SDS011;37751;52.408;12.536;2022-07-23T01:54:29;8.45;;;4.80;;
51664;SDS011;37751;52.408;12.536;2022-07-23T01:56:59;10.10;;;5.47;;
51664;SDS011;37751;52.408;12.536;2022-07-23T01:59:27;6.28;;;4.32;;
51664;SDS011;37751;52.408;12.536;2022-07-23T02:01:54;15.85;;;4.78;;
51664;SDS011;37751;52.408;12.536;2022-07-23T02:04:22;9.95;;;4.88;;
51664;SDS011;37751;52.408;12.536;2022-07-23T02:06:51;7.72;;;5.00;;
51664;SDS011;37751;52.408;12.536;2022-07-23T02:09:19;13.70;;;5.25;;
51664;SDS011;37751;52.408;12.536;2022-07-23T02:11:46;9.75;;;5.05;;
51664;SDS011;37751;52.408;12.536;2022-07-23T02:14:12;9.15;;;5.00;;
51664;SDS011;37751;52.408;12.536;2022-07-23T02:16:39;7.43;;;5.20;;
51664;SDS011;37751;52.408;12.536;2022-07-23T02:19:06;7.45;;;5.65;;
51664;SDS011;37751;52.408;12.536;2022-07-23T02:21:33;12.25;;;5.22;;
51664;SDS011;37751;52.408;12.536;2022-07-23T02:24:00;11.13;;;4.70;;
51664;SDS011;37751;52.408;12.536;2022-07-23T02:26:26;7.28;;;5.57;;
51664;SDS011;37751;52.408;12.536;2022-07-23T02:28:53;9.43;;;4.93;;
51664;SDS011;37751;52.408;12.536;2022-07-23T02:31:20;13.13;;;4.80;;
51664;SDS011;37751;52.408;12.536;2022-07-23T02:33:47;9.05;;;4.63;;
51664;SDS011;37751;52.408;12.536;2022-07-23T02:36:14;11.68;;;5.63;;
51664;SDS011;37751;52.408;12.536;2022-07-23T02:38:40;13.13;;;4.50;;
51664;SDS011;37751;52.408;12.536;2022-07-23T02:41:07;7.43;;;4.30;;
51664;SDS011;37751;52.408;12.536;2022-07-23T02:43:35;9.75;;;4.95;;
51664;SDS011;37751;52.408;12.536;2022-07-23T02:46:02;8.95;;;5.43;;
51664;SDS011;37751;52.408;12.536;2022-07-23T02:48:29;6.45;;;4.60;;
51664;SDS011;37751;52.408;12.536;2022-07-23T02:50:56;9.82;;;4.25;;
51664;SDS011;37751;52.408;12.536;2022-07-23T02:53:23;7.07;;;4.35;;
51664;SDS011;37751;52.408;12.536;2022-07-23T02:55:50;7.95;;;4.95;;
51664;SDS011;37751;52.408;12.536;2022-07-23T02:58:17;7.07;;;4.60;;
51664;SDS011;37751;52.408;12.536;2022-07-23T03:00:44;10.60;;;4.97;;
51664;SDS011;37751;52.408;12.536;2022-07-23T03:03:11;12.55;;;5.18;;
51664;SDS011;37751;52.408;12.536;2022-07-23T03:05:37;12.13;;;4.63;;
51664;SDS011;37751;52.408;12.536;2022-07-23T03:08:04;8.02;;;4.88;;
51664;SDS011;37751;52.408;12.536;2022-07-23T03:10:31;12.25;;;5.10;;
51664;SDS011;37751;52.408;12.536;2022-07-23T03:12:58;10.38;;;4.38;;
51664;SDS011;37751;52.408;12.536;2022-07-23T03:15:24;10.45;;;4.57;;
51664;SDS011;37751;52.408;12.536;2022-07-23T03:17:51;10.02;;;4.78;;
51664;SDS011;37751;52.408;12.536;2022-07-23T03:20:18;7.20;;;4.47;;
51664;SDS011;37751;52.408;12.536;2022-07-23T03:22:45;7.80;;;4.80;;
51664;SDS011;37751;52.408;12.536;2022-07-23T03:25:11;11.30;;;5.28;;
51664;SDS011;37751;52.408;12.536;2022-07-23T03:27:38;12.88;;;4.45;;
51664;SDS011;37751;52.408;12.536;2022-07-23T03:30:05;15.63;;;5.00;;
51664;SDS011;37751;52.408;12.536;2022-07-23T03:32:33;10.05;;;4.97;;
51664;SDS011;37751;52.408;12.536;2022-07-23T03:35:00;11.30;;;5.80;;
51664;SDS011;37751;52.408;12.536;2022-07-23T03:37:27;12.60;;;5.60;;
51664;SDS011;37751;52.408;12.536;2022-07-23T03:39:54;16.05;;;6.03;;
51664;SDS011;37751;52.408;12.536;2022-07-23T03:42:21;8.73;;;5.15;;
51664;SDS011;37751;52.408;12.536;2022-07-23T03:44:47;11.48;;;5.90;;
51664;SDS011;37751;52.408;12.536;2022-07-23T03:47:14;8.90;;;5.22;;
51664;SDS011;37751;52.408;12.536;2022-07-23T03:49:43;8.20;;;5.10;;
51664;SDS011;37751;52.408;12.536;2022-07-23T03:52:09;16.05;;;5.38;;
51664;SDS011;37751;52.408;12.536;2022-07-23T03:54:36;10.40;;;6.32;;
51664;SDS011;37751;52.408;12.536;2022-07-23T03:57:03;15.30;;;6.72;;
51664;SDS011;37751;52.408;12.536;2022-07-23T03:59:31;15.85;;;6.25;;
51664;SDS011;37751;52.408;12.536;2022-07-23T04:01:58;15.45;;;5.88;;
51664;SDS011;37751;52.408;12.536;2022-07-23T04:04:25;9.27;;;5.88;;
51664;SDS011;37751;52.408;12.536;2022-07-23T04:06:52;16.02;;;6.25;;
51664;SDS011;37751;52.408;12.536;2022-07-23T04:09:19;13.00;;;6.32;;
51664;SDS011;37751;52.408;12.536;2022-07-23T04:11:46;10.02;;;6.78;;
51664;SDS011;37751;52.408;12.536;2022-07-23T04:14:12;10.90;;;7.45;;
51664;SDS011;37751;52.408;12.536;2022-07-23T04:16:39;12.20;;;6.85;;
51664;SDS011;37751;52.408;12.536;2022-07-23T04:19:06;14.40;;;6.20;;
51664;SDS011;37751;52.408;12.536;2022-07-23T04:21:32;13.52;;;7.13;;
51664;SDS011;37751;52.408;12.536;2022-07-23T04:23:59;12.88;;;6.45;;
51664;SDS011;37751;52.408;12.536;2022-07-23T04:26:26;11.10;;;6.35;;
51664;SDS011;37751;52.408;12.536;2022-07-23T04:28:53;12.15;;;6.45;;
51664;SDS011;37751;52.408;12.536;2022-07-23T04:31:19;13.13;;;6.47;;
51664;SDS011;37751;52.408;12.536;2022-07-23T04:33:46;14.65;;;6.57;;
51664;SDS011;37751;52.408;12.536;2022-07-23T04:36:13;20.42;;;6.97;;
51664;SDS011;37751;52.408;12.536;2022-07-23T04:38:39;15.02;;;7.35;;
51664;SDS011;37751;52.408;12.536;2022-07-23T04:41:06;17.80;;;7.70;;
51664;SDS011;37751;52.408;12.536;2022-07-23T04:43:33;12.82;;;7.18;;
51664;SDS011;37751;52.408;12.536;2022-07-23T04:46:00;11.02;;;6.68;;
51664;SDS011;37751;52.408;12.536;2022-07-23T04:48:27;12.07;;;7.35;;
51664;SDS011;37751;52.408;12.536;2022-07-23T04:50:54;11.50;;;6.78;;
51664;SDS011;37751;52.408;12.536;2022-07-23T04:53:21;16.88;;;6.88;;
51664;SDS011;37751;52.408;12.536;2022-07-23T04:55:47;9.80;;;6.05;;
51664;SDS011;37751;52.408;12.536;2022-07-23T04:58:14;12.02;;;7.25;;
51664;SDS011;37751;52.408;12.536;2022-07-23T05:00:41;13.85;;;7.22;;
51664;SDS011;37751;52.408;12.536;2022-07-23T05:03:08;10.43;;;6.47;;
51664;SDS011;37751;52.408;12.536;2022-07-23T05:05:35;13.82;;;7.03;;
51664;SDS011;37751;52.408;12.536;2022-07-23T05:08:02;12.73;;;7.40;;
51664;SDS011;37751;52.408;12.536;2022-07-23T05:10:29;15.48;;;8.27;;
51664;SDS011;37751;52.408;12.536;2022-07-23T05:12:56;13.85;;;7.57;;
51664;SDS011;37751;52.408;12.536;2022-07-23T05:15:23;19.40;;;7.47;;
51664;SDS011;37751;52.408;12.536;2022-07-23T05:17:49;16.38;;;8.88;;
51664;SDS011;37751;52.408;12.536;2022-07-23T05:20:16;14.38;;;7.15;;
51664;SDS011;37751;52.408;12.536;2022-07-23T05:22:43;14.70;;;7.80;;
51664;SDS011;37751;52.408;12.536;2022-07-23T05:25:10;10.30;;;7.22;;
51664;SDS011;37751;52.408;12.536;2022-07-23T05:27:36;10.38;;;7.20;;
51664;SDS011;37751;52.408;12.536;2022-07-23T05:30:03;12.45;;;5.90;;
51664;SDS011;37751;52.408;12.536;2022-07-23T05:32:31;12.82;;;6.68;;
51664;SDS011;37751;52.408;12.536;2022-07-23T05:34:59;15.38;;;7.40;;
51664;SDS011;37751;52.408;12.536;2022-07-23T05:37:26;10.55;;;6.32;;
51664;SDS011;37751;52.408;12.536;2022-07-23T05:39:53;15.38;;;6.05;;
51664;SDS011;37751;52.408;12.536;2022-07-23T05:42:20;14.02;;;6.95;;
51664;SDS011;37751;52.408;12.536;2022-07-23T05:44:46;9.93;;;6.82;;
51664;SDS011;37751;52.408;12.536;2022-07-23T05:47:13;15.90;;;7.95;;
51664;SDS011;37751;52.408;12.536;2022-07-23T05:49:40;15.35;;;6.40;;
51664;SDS011;37751;52.408;12.536;2022-07-23T05:52:07;16.55;;;7.05;;
51664;SDS011;37751;52.408;12.536;2022-07-23T05:54:34;15.75;;;7.28;;
51664;SDS011;37751;52.408;12.536;2022-07-23T05:57:02;17.33;;;7.18;;
51664;SDS011;37751;52.408;12.536;2022-07-23T05:59:29;13.15;;;8.13;;
51664;SDS011;37751;52.408;12.536;2022-07-23T06:01:56;12.48;;;8.20;;
51664;SDS011;37751;52.408;12.536;2022-07-23T06:04:23;11.73;;;7.90;;
51664;SDS011;37751;52.408;12.536;2022-07-23T06:06:50;12.55;;;8.23;;
51664;SDS011;37751;52.408;12.536;2022-07-23T06:09:17;13.45;;;8.13;;
51664;SDS011;37751;52.408;12.536;2022-07-23T06:11:44;10.90;;;7.93;;
51664;SDS011;37751;52.408;12.536;2022-07-23T06:14:11;11.77;;;9.00;;
51664;SDS011;37751;52.408;12.536;2022-07-23T06:16:37;12.75;;;7.55;;
51664;SDS011;37751;52.408;12.536;2022-07-23T06:19:04;18.30;;;8.57;;
51664;SDS011;37751;52.408;12.536;2022-07-23T06:21:31;17.95;;;9.40;;
51664;SDS011;37751;52.408;12.536;2022-07-23T06:24:13;16.20;;;9.63;;
51664;SDS011;37751;52.408;12.536;2022-07-23T06:26:40;20.10;;;10.25;;
51664;SDS011;37751;52.408;12.536;2022-07-23T06:29:07;15.75;;;9.27;;
51664;SDS011;37751;52.408;12.536;2022-07-23T06:31:34;15.32;;;10.27;;
51664;SDS011;37751;52.408;12.536;2022-07-23T06:34:01;15.77;;;10.52;;
51664;SDS011;37751;52.408;12.536;2022-07-23T06:36:28;20.30;;;11.00;;
51664;SDS011;37751;52.408;12.536;2022-07-23T06:38:55;10.02;;;8.63;;
51664;SDS011;37751;52.408;12.536;2022-07-23T06:41:23;14.40;;;8.55;;
51664;SDS011;37751;52.408;12.536;2022-07-23T06:43:50;14.15;;;7.90;;
51664;SDS011;37751;52.408;12.536;2022-07-23T06:46:17;13.20;;;8.77;;
51664;SDS011;37751;52.408;12.536;2022-07-23T06:48:44;11.07;;;8.43;;
51664;SDS011;37751;52.408;12.536;2022-07-23T06:51:10;15.00;;;8.68;;
51664;SDS011;37751;52.408;12.536;2022-07-23T06:53:37;14.10;;;8.27;;
51664;SDS011;37751;52.408;12.536;2022-07-23T06:56:04;13.30;;;8.57;;
51664;SDS011;37751;52.408;12.536;2022-07-23T06:58:31;10.75;;;7.93;;
51664;SDS011;37751;52.408;12.536;2022-07-23T07:00:58;16.25;;;8.25;;
51664;SDS011;37751;52.408;12.536;2022-07-23T07:03:25;11.68;;;7.65;;
51664;SDS011;37751;52.408;12.536;2022-07-23T07:05:52;14.68;;;8.18;;
51664;SDS011;37751;52.408;12.536;2022-07-23T07:08:19;16.80;;;9.27;;
51664;SDS011;37751;52.408;12.536;2022-07-23T07:10:46;14.85;;;9.07;;
51664;SDS011;37751;52.408;12.536;2022-07-23T07:13:13;12.63;;;7.28;;
51664;SDS011;37751;52.408;12.536;2022-07-23T07:15:40;11.63;;;6.93;;
51664;SDS011;37751;52.408;12.536;2022-07-23T07:18:07;16.73;;;8.55;;
51664;SDS011;37751;52.408;12.536;2022-07-23T07:20:34;11.13;;;6.63;;
51664;SDS011;37751;52.408;12.536;2022-07-23T07:23:01;13.73;;;7.97;;
51664;SDS011;37751;52.408;12.536;2022-07-23T07:25:28;8.65;;;7.25;;
51664;SDS011;37751;52.408;12.536;2022-07-23T07:27:55;9.95;;;7.35;;
51664;SDS011;37751;52.408;12.536;2022-07-23T07:30:22;14.90;;;8.00;;
51664;SDS011;37751;52.408;12.536;2022-07-23T07:32:57;17.85;;;7.60;;
51664;SDS011;37751;52.408;12.536;2022-07-23T07:35:24;10.73;;;7.13;;
51664;SDS011;37751;52.408;12.536;2022-07-23T07:37:51;9.55;;;6.53;;
51664;SDS011;37751;52.408;12.536;2022-07-23T07:40:18;10.38;;;6.47;;
51664;SDS011;37751;52.408;12.536;2022-07-23T07:42:50;10.10;;;6.47;;
51664;SDS011;37751;52.408;12.536;2022-07-23T07:45:19;12.60;;;6.70;;
51664;SDS011;37751;52.408;12.536;2022-07-23T07:47:47;11.85;;;6.47;;
51664;SDS011;37751;52.408;12.536;2022-07-23T07:50:14;11.82;;;6.72;;
51664;SDS011;37751;52.408;12.536;2022-07-23T07:52:41;12.20;;;6.97;;
51664;SDS011;37751;52.408;12.536;2022-07-23T07:55:09;14.52;;;6.00;;
51664;SDS011;37751;52.408;12.536;2022-07-23T07:57:37;10.77;;;6.13;;
51664;SDS011;37751;52.408;12.536;2022-07-23T08:00:05;11.90;;;5.57;;
51664;SDS011;37751;52.408;12.536;2022-07-23T08:02:43;8.43;;;6.32;;
51664;SDS011;37751;52.408;12.536;2022-07-23T08:05:18;16.30;;;6.88;;
51664;SDS011;37751;52.408;12.536;2022-07-23T08:07:54;9.00;;;5.78;;
51664;SDS011;37751;52.408;12.536;2022-07-23T08:10:25;9.95;;;5.38;;
51664;SDS011;37751;52.408;12.536;2022-07-23T08:12:54;11.50;;;6.00;;
51664;SDS011;37751;52.408;12.536;2022-07-23T08:15:26;9.50;;;5.53;;
51664;SDS011;37751;52.408;12.536;2022-07-23T08:17:55;10.55;;;6.18;;
51664;SDS011;37751;52.408;12.536;2022-07-23T08:20:23;10.60;;;6.03;;
51664;SDS011;37751;52.408;12.536;2022-07-23T08:22:52;13.93;;;6.20;;
51664;SDS011;37751;52.408;12.536;2022-07-23T08:25:30;10.18;;;5.22;;
51664;SDS011;37751;52.408;12.536;2022-07-23T08:28:04;6.97;;;5.22;;
51664;SDS011;37751;52.408;12.536;2022-07-23T08:30:34;15.30;;;5.50;;
51664;SDS011;37751;52.408;12.536;2022-07-23T08:35:34;13.98;;;5.10;;
51664;SDS011;37751;52.408;12.536;2022-07-23T08:38:13;7.13;;;4.97;;
51664;SDS011;37751;52.408;12.536;2022-07-23T08:40:43;10.65;;;4.72;;
51664;SDS011;37751;52.408;12.536;2022-07-23T08:43:17;8.15;;;4.53;;
51664;SDS011;37751;52.408;12.536;2022-07-23T08:45:52;7.40;;;4.88;;
51664;SDS011;37751;52.408;12.536;2022-07-23T08:48:27;10.68;;;5.20;;
51664;SDS011;37751;52.408;12.536;2022-07-23T08:51:00;18.35;;;5.70;;
51664;SDS011;37751;52.408;12.536;2022-07-23T08:53:29;10.75;;;5.55;;
51664;SDS011;37751;52.408;12.536;2022-07-23T08:55:58;14.93;;;4.80;;
51664;SDS011;37751;52.408;12.536;2022-07-23T08:58:28;12.73;;;5.22;;
51664;SDS011;37751;52.408;12.536;2022-07-23T09:00:56;13.25;;;5.78;;
51664;SDS011;37751;52.408;12.536;2022-07-23T09:06:00;8.27;;;4.30;;
51664;SDS011;37751;52.408;12.536;2022-07-23T09:11:08;10.02;;;4.65;;
51664;SDS011;37751;52.408;12.536;2022-07-23T09:13:48;15.90;;;5.47;;
51664;SDS011;37751;52.408;12.536;2022-07-23T09:16:29;6.90;;;3.67;;
51664;SDS011;37751;52.408;12.536;2022-07-23T09:18:59;7.82;;;3.50;;
51664;SDS011;37751;52.408;12.536;2022-07-23T09:21:35;9.00;;;4.40;;
51664;SDS011;37751;52.408;12.536;2022-07-23T09:31:52;10.80;;;4.38;;
51664;SDS011;37751;52.408;12.536;2022-07-23T09:36:55;9.77;;;3.97;;
51664;SDS011;37751;52.408;12.536;2022-07-23T09:39:34;9.30;;;4.05;;
51664;SDS011;37751;52.408;12.536;2022-07-23T09:44:52;8.70;;;4.15;;
51664;SDS011;37751;52.408;12.536;2022-07-23T09:47:22;8.50;;;4.20;;
51664;SDS011;37751;52.408;12.536;2022-07-23T09:52:36;6.60;;;4.25;;
51664;SDS011;37751;52.408;12.536;2022-07-23T09:55:12;6.68;;;4.40;;
51664;SDS011;37751;52.408;12.536;2022-07-23T09:57:40;7.38;;;4.38;;
51664;SDS011;37751;52.408;12.536;2022-07-23T10:00:08;12.00;;;4.47;;
51664;SDS011;37751;52.408;12.536;2022-07-23T10:02:37;6.03;;;3.88;;
51664;SDS011;37751;52.408;12.536;2022-07-23T10:05:05;7.43;;;4.05;;
51664;SDS011;37751;52.408;12.536;2022-07-23T10:07:36;11.63;;;3.95;;
51664;SDS011;37751;52.408;12.536;2022-07-23T10:10:05;7.13;;;3.20;;
51664;SDS011;37751;52.408;12.536;2022-07-23T10:12:33;8.10;;;3.70;;
51664;SDS011;37751;52.408;12.536;2022-07-23T10:15:29;5.47;;;3.08;;
51664;SDS011;37751;52.408;12.536;2022-07-23T10:17:56;8.02;;;3.85;;
51664;SDS011;37751;52.408;12.536;2022-07-23T10:20:23;5.68;;;3.25;;
51664;SDS011;37751;52.408;12.536;2022-07-23T10:23:02;4.55;;;3.45;;
51664;SDS011;37751;52.408;12.536;2022-07-23T10:37:36;9.25;;;3.72;;
51664;SDS011;37751;52.408;12.536;2022-07-23T10:40:12;7.50;;;4.10;;
51664;SDS011;37751;52.408;12.536;2022-07-23T10:42:44;8.27;;;3.90;;
51664;SDS011;37751;52.408;12.536;2022-07-23T10:45:26;7.20;;;3.55;;
51664;SDS011;37751;52.408;12.536;2022-07-23T10:48:10;6.50;;;3.83;;
51664;SDS011;37751;52.408;12.536;2022-07-23T10:50:40;5.15;;;3.17;;
51664;SDS011;37751;52.408;12.536;2022-07-23T10:53:15;8.65;;;3.67;;
51664;SDS011;37751;52.408;12.536;2022-07-23T10:55:45;8.25;;;3.33;;
51664;SDS011;37751;52.408;12.536;2022-07-23T10:58:19;6.85;;;3.05;;
51664;SDS011;37751;52.408;12.536;2022-07-23T11:00:49;12.55;;;3.30;;
51664;SDS011;37751;52.408;12.536;2022-07-23T11:03:33;11.00;;;3.50;;
51664;SDS011;37751;52.408;12.536;2022-07-23T11:06:03;5.57;;;2.83;;
51664;SDS011;37751;52.408;12.536;2022-07-23T11:08:31;8.85;;;3.20;;
51664;SDS011;37751;52.408;12.536;2022-07-23T11:13:29;9.73;;;3.47;;
51664;SDS011;37751;52.408;12.536;2022-07-23T11:16:16;6.35;;;2.55;;
51664;SDS011;37751;52.408;12.536;2022-07-23T11:31:55;5.80;;;2.78;;
51664;SDS011;37751;52.408;12.536;2022-07-23T11:37:08;7.28;;;2.60;;
51664;SDS011;37751;52.408;12.536;2022-07-23T11:39:56;3.65;;;2.40;;
51664;SDS011;37751;52.408;12.536;2022-07-23T11:42:24;4.53;;;2.70;;
51664;SDS011;37751;52.408;12.536;2022-07-23T11:44:56;5.28;;;2.60;;
51664;SDS011;37751;52.408;12.536;2022-07-23T11:47:24;6.85;;;2.42;;
51664;SDS011;37751;52.408;12.536;2022-07-23T11:49:53;7.82;;;2.90;;
51664;SDS011;37751;52.408;12.536;2022-07-23T11:52:26;3.83;;;2.10;;
51664;SDS011;37751;52.408;12.536;2022-07-23T11:57:35;5.13;;;2.60;;
51664;SDS011;37751;52.408;12.536;2022-07-23T12:00:15;5.50;;;2.42;;
51664;SDS011;37751;52.408;12.536;2022-07-23T12:02:50;6.07;;;2.67;;
51664;SDS011;37751;52.408;12.536;2022-07-23T12:05:21;5.68;;;2.75;;
51664;SDS011;37751;52.408;12.536;2022-07-23T12:07:58;6.78;;;2.58;;
51664;SDS011;37751;52.408;12.536;2022-07-23T12:10:28;7.03;;;2.10;;
51664;SDS011;37751;52.408;12.536;2022-07-23T12:13:04;7.72;;;2.45;;
51664;SDS011;37751;52.408;12.536;2022-07-23T12:15:42;7.80;;;2.25;;
51664;SDS011;37751;52.408;12.536;2022-07-23T12:18:12;6.07;;;2.30;;
51664;SDS011;37751;52.408;12.536;2022-07-23T12:20:44;4.75;;;2.30;;
51664;SDS011;37751;52.408;12.536;2022-07-23T12:23:14;6.53;;;1.88;;
51664;SDS011;37751;52.408;12.536;2022-07-23T12:25:46;6.90;;;2.10;;
51664;SDS011;37751;52.408;12.536;2022-07-23T12:28:21;10.18;;;2.30;;
51664;SDS011;37751;52.408;12.536;2022-07-23T12:30:56;3.65;;;2.28;;
51664;SDS011;37751;52.408;12.536;2022-07-23T12:33:25;6.35;;;2.05;;
51664;SDS011;37751;52.408;12.536;2022-07-23T12:35:56;5.38;;;2.35;;
51664;SDS011;37751;52.408;12.536;2022-07-23T12:38:26;7.05;;;2.92;;
51664;SDS011;37751;52.408;12.536;2022-07-23T12:41:02;5.70;;;3.45;;
51664;SDS011;37751;52.408;12.536;2022-07-23T12:43:36;6.40;;;2.00;;
51664;SDS011;37751;52.408;12.536;2022-07-23T12:48:50;4.15;;;1.63;;
51664;SDS011;37751;52.408;12.536;2022-07-23T12:51:25;3.50;;;1.88;;
51664;SDS011;37751;52.408;12.536;2022-07-23T12:54:05;6.60;;;1.80;;
51664;SDS011;37751;52.408;12.536;2022-07-23T12:56:36;3.03;;;1.73;;
51664;SDS011;37751;52.408;12.536;2022-07-23T12:59:07;7.13;;;2.17;;
51664;SDS011;37751;52.408;12.536;2022-07-23T13:01:41;5.43;;;2.10;;
51664;SDS011;37751;52.408;12.536;2022-07-23T13:04:12;5.30;;;1.83;;
51664;SDS011;37751;52.408;12.536;2022-07-23T13:06:48;3.70;;;1.67;;
51664;SDS011;37751;52.408;12.536;2022-07-23T13:09:18;5.93;;;1.95;;
51664;SDS011;37751;52.408;12.536;2022-07-23T13:11:58;4.25;;;2.20;;
51664;SDS011;37751;52.408;12.536;2022-07-23T13:14:26;6.57;;;1.98;;
51664;SDS011;37751;52.408;12.536;2022-07-23T13:16:54;7.03;;;2.15;;
51664;SDS011;37751;52.408;12.536;2022-07-23T13:22:05;6.68;;;2.03;;
51664;SDS011;37751;52.408;12.536;2022-07-23T13:24:35;6.45;;;1.58;;
51664;SDS011;37751;52.408;12.536;2022-07-23T13:27:04;5.22;;;2.13;;
51664;SDS011;37751;52.408;12.536;2022-07-23T13:29:33;2.25;;;1.40;;
51664;SDS011;37751;52.408;12.536;2022-07-23T13:32:01;4.45;;;1.58;;
51664;SDS011;37751;52.408;12.536;2022-07-23T13:34:38;4.22;;;1.38;;
51664;SDS011;37751;52.408;12.536;2022-07-23T13:37:07;3.90;;;1.40;;
51664;SDS011;37751;52.408;12.536;2022-07-23T13:39:34;3.45;;;1.67;;
51664;SDS011;37751;52.408;12.536;2022-07-23T13:42:04;4.20;;;1.40;;
51664;SDS011;37751;52.408;12.536;2022-07-23T13:44:33;3.17;;;1.50;;
51664;SDS011;37751;52.408;12.536;2022-07-23T13:47:01;4.88;;;1.55;;
51664;SDS011;37751;52.408;12.536;2022-07-23T13:49:30;4.88;;;1.05;;
51664;SDS011;37751;52.408;12.536;2022-07-23T13:51:57;6.03;;;1.67;;
51664;SDS011;37751;52.408;12.536;2022-07-23T13:54:24;4.13;;;1.42;;
51664;SDS011;37751;52.408;12.536;2022-07-23T13:56:53;2.30;;;1.20;;
51664;SDS011;37751;52.408;12.536;2022-07-23T13:59:21;1.90;;;1.27;;
51664;SDS011;37751;52.408;12.536;2022-07-23T14:01:51;3.92;;;1.30;;
51664;SDS011;37751;52.408;12.536;2022-07-23T14:04:39;4.18;;;1.42;;
51664;SDS011;37751;52.408;12.536;2022-07-23T14:07:07;5.80;;;1.23;;
51664;SDS011;37751;52.408;12.536;2022-07-23T14:09:34;2.60;;;1.20;;
51664;SDS011;37751;52.408;12.536;2022-07-23T14:12:02;4.50;;;1.33;;
51664;SDS011;37751;52.408;12.536;2022-07-23T14:14:30;3.58;;;1.60;;
51664;SDS011;37751;52.408;12.536;2022-07-23T14:16:57;5.72;;;1.23;;
51664;SDS011;37751;52.408;12.536;2022-07-23T14:19:26;1.90;;;1.00;;
51664;SDS011;37751;52.408;12.536;2022-07-23T14:21:56;2.13;;;0.80;;
51664;SDS011;37751;52.408;12.536;2022-07-23T14:24:23;3.25;;;1.08;;
51664;SDS011;37751;52.408;12.536;2022-07-23T14:26:55;4.13;;;1.30;;
51664;SDS011;37751;52.408;12.536;2022-07-23T14:29:22;1.77;;;0.80;;
51664;SDS011;37751;52.408;12.536;2022-07-23T14:31:49;5.15;;;0.98;;
51664;SDS011;37751;52.408;12.536;2022-07-23T14:34:16;3.85;;;0.60;;
51664;SDS011;37751;52.408;12.536;2022-07-23T14:36:52;4.60;;;0.98;;
51664;SDS011;37751;52.408;12.536;2022-07-23T14:39:19;1.80;;;0.90;;
51664;SDS011;37751;52.408;12.536;2022-07-23T14:41:46;3.28;;;0.90;;
51664;SDS011;37751;52.408;12.536;2022-07-23T14:44:13;2.17;;;0.90;;
51664;SDS011;37751;52.408;12.536;2022-07-23T14:46:40;1.83;;;0.80;;
51664;SDS011;37751;52.408;12.536;2022-07-23T14:49:06;4.30;;;0.90;;
51664;SDS011;37751;52.408;12.536;2022-07-23T14:51:34;2.13;;;1.08;;
51664;SDS011;37751;52.408;12.536;2022-07-23T14:54:03;2.85;;;1.00;;
51664;SDS011;37751;52.408;12.536;2022-07-23T14:56:30;4.10;;;1.10;;
51664;SDS011;37751;52.408;12.536;2022-07-23T14:58:58;2.85;;;0.90;;
51664;SDS011;37751;52.408;12.536;2022-07-23T15:01:27;3.85;;;1.13;;
51664;SDS011;37751;52.408;12.536;2022-07-23T15:03:53;1.38;;;1.05;;
51664;SDS011;37751;52.408;12.536;2022-07-23T15:06:24;7.53;;;0.88;;
51664;SDS011;37751;52.408;12.536;2022-07-23T15:08:52;2.28;;;0.70;;
51664;SDS011;37751;52.408;12.536;2022-07-23T15:11:19;2.05;;;0.90;;
51664;SDS011;37751;52.408;12.536;2022-07-23T15:13:45;2.75;;;1.13;;
51664;SDS011;37751;52.408;12.536;2022-07-23T15:16:12;1.75;;;1.02;;
51664;SDS011;37751;52.408;12.536;2022-07-23T15:18:40;4.28;;;0.98;;
51664;SDS011;37751;52.408;12.536;2022-07-23T15:21:07;4.07;;;1.00;;
51664;SDS011;37751;52.408;12.536;2022-07-23T15:23:34;1.80;;;0.70;;
51664;SDS011;37751;52.408;12.536;2022-07-23T15:26:01;2.08;;;0.80;;
51664;SDS011;37751;52.408;12.536;2022-07-23T15:28:28;1.65;;;0.95;;
51664;SDS011;37751;52.408;12.536;2022-07-23T15:30:55;3.25;;;0.95;;
51664;SDS011;37751;52.408;12.536;2022-07-23T15:33:22;3.58;;;1.30;;
51664;SDS011;37751;52.408;12.536;2022-07-23T15:35:51;4.00;;;0.88;;
51664;SDS011;37751;52.408;12.536;2022-07-23T15:38:19;1.70;;;1.08;;
51664;SDS011;37751;52.408;12.536;2022-07-23T15:40:52;2.95;;;0.80;;